Time;durP1;ratioP1;P1;durP2;ratioP2;P2;SDS_P1;SDS_P2;PMS_P1;PMS_P2;Temp;Humidity;BMP_temperature;BMP_pressure;BME280_temperature;BME280_humidity;BME280_pressure;Samples;Min_cycle;Max_cycle;Signal;HPM_P1;HPM_P2
2022/01/23 00:00:27;;;;;;;4.35;1.05;;;5.70;99.90;;;;;;5013578;28;20045;-83
2022/01/23 00:02:55;;;;;;;2.53;1.00;;;5.70;99.90;;;;;;5070239;28;20068;-83
2022/01/23 00:05:24;;;;;;;1.67;0.90;;;6.20;99.90;;;;;;5039903;28;20053;-83
2022/01/23 00:07:51;;;;;;;2.70;0.80;;;5.70;99.90;;;;;;5037923;28;20060;-84
2022/01/23 00:10:17;;;;;;;3.10;0.95;;;5.70;99.90;;;;;;5055820;28;20048;-83
2022/01/23 00:12:48;;;;;;;4.65;1.20;;;5.60;99.90;;;;;;5039558;28;20067;-83
2022/01/23 00:17:58;;;;;;;3.88;1.05;;;5.70;99.90;;;;;;5062945;28;20044;-82
2022/01/23 00:20:24;;;;;;;2.22;1.10;;;5.70;99.90;;;;;;5055397;28;20056;-82
2022/01/23 00:22:56;;;;;;;2.47;1.13;;;5.70;99.90;;;;;;5068888;28;20052;-83
2022/01/23 00:30:53;;;;;;;3.58;1.40;;;5.70;99.90;;;;;;5041221;28;20098;-82
2022/01/23 00:33:19;;;;;;;2.88;1.30;;;6.10;99.90;;;;;;5055080;28;20037;-82
2022/01/23 00:35:47;;;;;;;4.57;1.38;;;5.70;99.90;;;;;;5054229;28;20139;-82
2022/01/23 00:38:14;;;;;;;2.22;1.13;;;5.70;99.90;;;;;;5023239;28;20052;-82
2022/01/23 00:40:43;;;;;;;3.88;1.10;;;5.60;99.90;;;;;;5054514;28;20049;-83
2022/01/23 00:46:23;;;;;;;3.97;1.30;;;5.60;99.90;;;;;;5022760;28;20490;-81
2022/01/23 00:51:29;;;;;;;5.60;1.30;;;5.50;99.90;;;;;;5088376;28;20056;-82
2022/01/23 00:53:56;;;;;;;2.50;1.30;;;5.40;99.90;;;;;;5022426;28;20083;-82
2022/01/23 00:56:22;;;;;;;2.85;1.48;;;5.40;99.90;;;;;;5022653;28;20088;-82
2022/01/23 00:58:48;;;;;;;4.32;1.65;;;5.40;99.90;;;;;;5023455;28;20099;-82
2022/01/23 01:01:15;;;;;;;3.35;1.30;;;5.40;99.90;;;;;;5039862;28;20504;-82
2022/01/23 01:03:41;;;;;;;3.95;1.50;;;5.40;99.90;;;;;;5038016;28;20110;-82
2022/01/23 01:06:07;;;;;;;5.70;1.50;;;5.30;99.90;;;;;;5038570;28;20052;-82
2022/01/23 01:08:33;;;;;;;3.03;1.38;;;5.90;99.90;;;;;;5053933;28;20041;-81
2022/01/23 01:13:31;;;;;;;2.75;1.33;;;5.30;99.90;;;;;;5086630;28;20080;-81
2022/01/23 01:16:24;;;;;;;3.58;1.17;;;5.30;99.90;;;;;;5055588;28;20049;-82
2022/01/23 01:32:46;;;;;;;3.30;1.10;;;5.40;99.90;;;;;;5039480;28;20053;-82
2022/01/23 01:35:36;;;;;;;2.15;1.20;;;5.40;99.90;;;;;;5034354;28;20048;-82
2022/01/23 01:38:01;;;;;;;4.93;1.10;;;5.90;99.90;;;;;;5052948;28;20056;-82
2022/01/23 01:40:27;;;;;;;3.70;1.02;;;6.80;99.90;;;;;;5020900;28;20474;-82
2022/01/23 01:42:54;;;;;;;3.75;1.30;;;6.30;99.90;;;;;;5066387;28;20048;-82
2022/01/23 01:45:24;;;;;;;2.60;0.90;;;5.50;99.90;;;;;;5020795;28;20072;-82
2022/01/23 01:47:52;;;;;;;2.05;0.90;;;5.40;99.90;;;;;;5052915;28;20041;-82
2022/01/23 01:50:19;;;;;;;2.15;0.90;;;5.50;99.90;;;;;;5036815;28;20086;-82
2022/01/23 01:52:45;;;;;;;4.43;1.20;;;5.50;99.90;;;;;;5021630;28;20132;-84
2022/01/23 01:55:16;;;;;;;3.25;1.00;;;6.70;99.90;;;;;;5037525;28;20121;-84
2022/01/23 01:57:51;;;;;;;2.95;1.10;;;5.50;99.90;;;;;;5068761;28;20049;-83
2022/01/23 02:08:33;;;;;;;3.60;0.95;;;5.50;99.90;;;;;;5039668;28;20383;-84
2022/01/23 02:11:09;;;;;;;3.33;1.05;;;5.50;99.90;;;;;;5052266;28;20107;-84
2022/01/23 02:13:43;;;;;;;4.57;1.10;;;5.50;99.90;;;;;;5051672;28;20045;-84
2022/01/23 02:56:52;;;;;;;6.53;2.30;;;5.50;99.90;;;;;;5068242;28;20057;-82
2022/01/23 02:59:23;;;;;;;6.28;2.15;;;5.50;99.90;;;;;;5051672;28;20052;-82
2022/01/23 03:02:37;;;;;;;4.57;2.00;;;5.50;99.90;;;;;;5019767;28;20396;-82
2022/01/23 03:04:48;;;;;;;7.75;2.42;;;5.30;99.90;;;;;;5067747;28;20177;-82
2022/01/23 03:07:47;;;;;;;5.13;1.80;;;6.00;99.90;;;;;;5020770;28;20056;-82
2022/01/23 03:10:07;;;;;;;7.72;1.80;;;5.40;99.90;;;;;;5036271;28;20110;-83
2022/01/23 03:26:34;;;;;;;3.47;1.60;;;6.00;99.90;;;;;;5051906;28;20059;-82
2022/01/23 03:29:19;;;;;;;2.95;1.38;;;5.40;99.90;;;;;;5054995;28;20045;-82
2022/01/23 03:34:23;;;;;;;4.20;1.63;;;5.40;99.90;;;;;;5049810;28;20448;-82
2022/01/23 03:36:48;;;;;;;4.28;1.63;;;5.50;99.90;;;;;;5020658;28;20409;-82
2022/01/23 03:39:14;;;;;;;6.18;1.55;;;5.40;99.90;;;;;;5051918;28;20047;-83
2022/01/23 03:41:42;;;;;;;2.92;1.65;;;5.50;99.90;;;;;;5018601;28;20547;-83
2022/01/23 03:44:10;;;;;;;4.18;1.40;;;5.40;99.90;;;;;;5065495;28;20053;-83
2022/01/23 03:46:50;;;;;;;3.50;1.52;;;5.40;99.90;;;;;;5084282;28;20127;-83
2022/01/23 03:49:36;;;;;;;4.72;1.67;;;5.50;99.90;;;;;;5035109;28;20047;-83
2022/01/23 03:52:11;;;;;;;6.00;1.98;;;5.60;99.90;;;;;;5065345;28;20055;-83
2022/01/23 03:54:38;;;;;;;3.93;1.63;;;5.60;99.90;;;;;;5020693;28;20088;-83
2022/01/23 03:57:06;;;;;;;3.70;1.88;;;5.50;99.90;;;;;;5021305;28;20830;-83
2022/01/23 03:59:33;;;;;;;3.35;1.52;;;5.50;99.90;;;;;;5020714;28;20049;-83
2022/01/23 04:01:59;;;;;;;5.75;1.73;;;5.40;99.90;;;;;;5051135;28;20041;-82
2022/01/23 04:04:41;;;;;;;3.88;1.73;;;5.40;99.90;;;;;;5035929;28;20072;-82
2022/01/23 04:07:18;;;;;;;5.55;2.15;;;5.40;99.90;;;;;;5052239;28;20048;-82
2022/01/23 04:09:44;;;;;;;4.25;2.00;;;5.50;99.90;;;;;;5071055;28;20047;-83
2022/01/23 04:12:26;;;;;;;4.20;1.90;;;5.50;99.90;;;;;;5038072;28;20040;-83
2022/01/23 04:15:03;;;;;;;4.15;1.98;;;6.90;99.90;;;;;;5039400;28;20516;-84
2022/01/23 04:20:09;;;;;;;7.18;2.20;;;5.50;99.90;;;;;;5088290;28;20570;-82
2022/01/23 04:33:46;;;;;;;6.95;2.70;;;5.40;99.90;;;;;;5087471;28;20051;-82
2022/01/23 05:01:03;;;;;;;10.75;3.33;;;5.40;99.90;;;;;;5039152;28;20048;-84
2022/01/23 05:06:12;;;;;;;8.07;3.30;;;5.40;99.90;;;;;;5052014;28;20052;-83
2022/01/23 05:08:38;;;;;;;11.88;4.00;;;5.30;99.90;;;;;;5036267;28;20405;-83
2022/01/23 05:11:06;;;;;;;13.27;4.32;;;5.50;99.90;;;;;;5054559;28;20048;-82
2022/01/23 05:13:33;;;;;;;10.80;4.32;;;5.40;99.90;;;;;;5035827;28;20608;-83
2022/01/23 05:15:59;;;;;;;11.40;3.58;;;5.40;99.90;;;;;;5036287;28;20040;-83
2022/01/23 05:18:25;;;;;;;9.40;3.70;;;5.50;99.90;;;;;;5036078;28;20194;-83
2022/01/23 05:21:01;;;;;;;13.70;4.22;;;5.40;99.90;;;;;;5036613;28;20139;-82
2022/01/23 05:23:27;;;;;;;11.82;4.28;;;5.50;99.90;;;;;;5068250;28;20045;-82
2022/01/23 05:25:53;;;;;;;11.10;3.97;;;5.50;99.90;;;;;;5069319;28;20055;-82
2022/01/23 05:28:19;;;;;;;10.77;4.50;;;5.40;99.90;;;;;;5036445;28;20049;-83
2022/01/23 05:30:44;;;;;;;12.68;4.82;;;6.60;99.90;;;;;;5024317;28;20107;-82
2022/01/23 05:33:10;;;;;;;15.70;5.10;;;5.50;99.90;;;;;;5034952;28;20053;-82
2022/01/23 05:35:36;;;;;;;11.02;4.75;;;5.50;99.90;;;;;;5036227;28;20045;-83
2022/01/23 05:38:02;;;;;;;15.52;5.45;;;5.50;99.90;;;;;;5051146;28;20098;-83
2022/01/23 05:40:29;;;;;;;11.82;5.93;;;6.90;99.90;;;;;;5037447;28;20131;-83
2022/01/23 05:42:55;;;;;;;16.27;5.53;;;5.50;99.90;;;;;;5041321;28;20048;-82
2022/01/23 05:45:24;;;;;;;11.40;5.18;;;5.50;99.90;;;;;;5036187;28;20048;-82
2022/01/23 05:47:50;;;;;;;10.80;4.57;;;5.50;99.90;;;;;;5055128;28;20123;-81
2022/01/23 05:50:16;;;;;;;12.15;5.00;;;5.50;99.90;;;;;;5037940;28;20156;-82
2022/01/23 05:52:41;;;;;;;14.80;5.72;;;5.60;99.90;;;;;;5037614;28;20071;-82
2022/01/23 05:55:07;;;;;;;14.25;5.38;;;5.40;99.90;;;;;;5019589;28;20055;-83
2022/01/23 05:57:33;;;;;;;12.38;5.75;;;5.60;99.90;;;;;;5022713;28;20054;-83
2022/01/23 05:59:59;;;;;;;19.17;6.55;;;5.50;99.90;;;;;;5052748;28;20427;-84
2022/01/23 06:02:25;;;;;;;20.40;6.32;;;4.50;99.90;;;;;;5036493;28;20163;-83
2022/01/23 06:04:51;;;;;;;13.13;5.65;;;5.50;99.90;;;;;;5036855;28;20051;-83
2022/01/23 06:07:16;;;;;;;13.48;5.53;;;7.00;99.90;;;;;;5019119;28;20044;-82
2022/01/23 06:09:42;;;;;;;14.32;5.80;;;5.70;99.90;;;;;;5035955;28;20053;-83
2022/01/23 06:12:08;;;;;;;15.63;6.03;;;5.50;99.90;;;;;;5068008;28;20051;-83
2022/01/23 06:14:34;;;;;;;15.20;5.82;;;5.60;99.90;;;;;;5053015;28;20063;-82
2022/01/23 06:17:00;;;;;;;12.63;5.38;;;5.60;99.90;;;;;;5035671;28;20040;-83
2022/01/23 06:19:26;;;;;;;12.38;6.22;;;6.10;99.90;;;;;;5038375;28;20078;-83
2022/01/23 06:21:54;;;;;;;14.00;6.00;;;5.60;99.90;;;;;;5055006;28;20475;-82
2022/01/23 06:24:29;;;;;;;18.77;7.68;;;5.50;99.90;;;;;;5037254;28;20040;-83
2022/01/23 06:27:01;;;;;;;16.05;5.70;;;6.80;99.90;;;;;;5022874;28;20095;-83
2022/01/23 06:29:31;;;;;;;14.20;6.35;;;5.60;99.90;;;;;;5087005;28;20083;-83
2022/01/23 06:32:02;;;;;;;12.07;6.43;;;5.60;99.90;;;;;;5058050;28;20074;-83
2022/01/23 06:34:29;;;;;;;13.88;6.22;;;4.50;99.90;;;;;;5040266;28;20048;-83
2022/01/23 06:36:55;;;;;;;15.80;6.20;;;5.60;99.90;;;;;;5023714;28;20166;-83
2022/01/23 06:39:22;;;;;;;12.10;5.55;;;5.50;99.90;;;;;;5036915;28;20045;-82
2022/01/23 06:41:48;;;;;;;13.73;5.82;;;5.50;99.90;;;;;;5036652;28;20048;-83
2022/01/23 06:44:14;;;;;;;13.27;6.00;;;5.50;99.90;;;;;;5035675;28;20496;-83
2022/01/23 06:46:40;;;;;;;15.10;5.72;;;5.60;99.90;;;;;;5036911;28;20550;-83
2022/01/23 06:49:19;;;;;;;16.15;5.95;;;;;;;;;;5040406;28;20102;-82
2022/01/23 06:51:47;;;;;;;14.10;5.97;;;5.50;99.90;;;;;;5022311;28;20080;-83
2022/01/23 06:54:12;;;;;;;13.90;5.75;;;5.60;99.90;;;;;;5016952;28;20788;-84
2022/01/23 06:56:39;;;;;;;11.30;5.68;;;5.50;99.90;;;;;;5035941;28;20116;-83
2022/01/23 06:59:05;;;;;;;14.25;5.70;;;5.60;99.90;;;;;;5069053;28;20060;-83
2022/01/23 07:01:31;;;;;;;13.25;5.43;;;5.50;99.90;;;;;;5021354;28;20184;-83
2022/01/23 07:03:57;;;;;;;10.57;5.50;;;5.50;99.90;;;;;;5066025;28;20040;-84
2022/01/23 07:06:23;;;;;;;10.10;4.90;;;6.30;99.90;;;;;;5035250;28;20561;-82
2022/01/23 07:08:49;;;;;;;13.88;5.03;;;5.50;99.90;;;;;;5020251;28;20140;-83
2022/01/23 07:11:14;;;;;;;12.50;4.60;;;5.60;99.90;;;;;;5013264;28;20081;-83
2022/01/23 07:13:40;;;;;;;11.07;5.20;;;5.60;99.90;;;;;;5068302;28;20372;-83
2022/01/23 07:16:06;;;;;;;11.80;5.00;;;5.50;99.90;;;;;;5052429;28;20434;-83
2022/01/23 07:18:32;;;;;;;12.73;5.50;;;5.60;99.90;;;;;;5037815;28;20083;-84
2022/01/23 07:20:58;;;;;;;12.35;4.93;;;5.60;99.90;;;;;;5022275;28;20179;-83
2022/01/23 07:23:24;;;;;;;13.05;5.97;;;5.60;99.90;;;;;;5051069;28;20120;-83
2022/01/23 07:25:50;;;;;;;9.20;4.32;;;5.60;99.90;;;;;;5033892;28;20131;-82
2022/01/23 07:28:19;;;;;;;12.25;5.00;;;5.60;99.90;;;;;;5083917;28;20029;-83
2022/01/23 07:30:54;;;;;;;8.65;4.28;;;5.60;99.90;;;;;;5037004;28;20060;-83
2022/01/23 07:33:20;;;;;;;10.35;4.82;;;5.60;99.90;;;;;;5054757;28;20410;-83
2022/01/23 07:35:47;;;;;;;9.63;4.50;;;5.60;99.90;;;;;;5023310;28;20102;-83
2022/01/23 07:38:16;;;;;;;13.40;4.88;;;5.60;99.90;;;;;;5037700;28;20044;-82
2022/01/23 07:40:48;;;;;;;9.45;4.88;;;5.60;99.90;;;;;;5069194;28;20515;-83
2022/01/23 07:43:15;;;;;;;15.05;5.03;;;5.60;99.90;;;;;;5019878;28;20048;-84
2022/01/23 07:45:43;;;;;;;10.23;4.80;;;5.60;99.90;;;;;;5040087;28;20071;-83
2022/01/23 07:48:16;;;;;;;13.20;5.10;;;5.60;99.90;;;;;;5088130;28;20112;-83
2022/01/23 07:50:42;;;;;;;10.73;5.22;;;5.50;99.90;;;;;;5040390;28;20449;-83
2022/01/23 07:53:08;;;;;;;10.90;4.75;;;5.00;99.90;;;;;;5053918;28;20044;-84
2022/01/23 07:55:35;;;;;;;13.95;5.05;;;5.50;99.90;;;;;;5039012;28;20048;-82
2022/01/23 07:58:12;;;;;;;13.63;5.20;;;5.50;99.90;;;;;;5054532;28;20079;-83
2022/01/23 08:00:38;;;;;;;13.60;5.30;;;5.60;99.90;;;;;;5057476;28;20059;-83
2022/01/23 08:03:04;;;;;;;12.02;5.35;;;6.60;99.90;;;;;;5038509;28;20049;-83
2022/01/23 08:05:30;;;;;;;8.80;4.95;;;5.60;99.90;;;;;;5040623;28;20048;-83
2022/01/23 08:07:55;;;;;;;11.77;5.15;;;5.60;99.90;;;;;;5038728;28;20052;-83
2022/01/23 08:10:21;;;;;;;9.43;4.82;;;5.60;99.90;;;;;;5036306;28;20160;-83
2022/01/23 08:12:47;;;;;;;10.55;5.55;;;6.60;99.90;;;;;;5042696;28;20108;-82
2022/01/23 08:15:14;;;;;;;13.90;5.50;;;5.50;99.90;;;;;;5042646;28;20045;-83
2022/01/23 08:17:40;;;;;;;12.35;5.60;;;5.50;99.90;;;;;;5074619;28;20055;-83
2022/01/23 08:20:07;;;;;;;12.27;5.15;;;5.60;99.90;;;;;;5057018;28;20132;-83
2022/01/23 08:22:33;;;;;;;13.98;5.72;;;5.60;99.90;;;;;;5042238;28;20115;-83
2022/01/23 08:25:01;;;;;;;13.80;6.80;;;5.60;99.90;;;;;;5052762;28;20051;-84
2022/01/23 08:27:28;;;;;;;13.60;6.45;;;5.60;99.90;;;;;;5056186;28;20848;-83
2022/01/23 08:29:54;;;;;;;15.60;6.63;;;5.60;99.90;;;;;;5038957;28;20362;-83
2022/01/23 08:32:20;;;;;;;15.10;6.57;;;5.60;99.90;;;;;;5036918;28;20052;-83
2022/01/23 08:34:46;;;;;;;10.57;6.50;;;5.60;99.90;;;;;;5025999;28;20044;-83
2022/01/23 08:37:12;;;;;;;12.27;5.95;;;5.90;99.90;;;;;;5038416;28;20098;-83
2022/01/23 08:39:39;;;;;;;10.55;6.00;;;5.60;99.90;;;;;;5055320;28;20075;-83
2022/01/23 08:42:15;;;;;;;13.48;6.40;;;5.70;99.90;;;;;;5038350;28;20048;-83
2022/01/23 08:44:42;;;;;;;13.13;6.03;;;5.70;99.90;;;;;;5038961;28;20056;-83
2022/01/23 08:47:17;;;;;;;16.02;6.53;;;5.70;99.90;;;;;;5024377;28;20056;-84
2022/01/23 08:49:46;;;;;;;14.07;6.65;;;5.80;99.90;;;;;;5039726;28;20045;-83
2022/01/23 08:52:16;;;;;;;10.88;6.18;;;5.80;99.90;;;;;;5053837;28;20050;-84
2022/01/23 08:54:44;;;;;;;11.48;5.65;;;5.70;99.90;;;;;;5024952;28;20084;-84
2022/01/23 08:57:11;;;;;;;12.68;6.20;;;5.70;99.90;;;;;;5053042;28;20531;-84
2022/01/23 08:59:37;;;;;;;11.48;6.07;;;5.70;99.90;;;;;;5040134;28;20053;-83
2022/01/23 09:02:04;;;;;;;10.32;5.32;;;5.70;99.90;;;;;;5036192;28;20045;-84
2022/01/23 09:04:29;;;;;;;12.75;5.95;;;5.80;99.90;;;;;;5007803;28;20040;-82
2022/01/23 09:06:55;;;;;;;9.43;5.32;;;5.70;99.90;;;;;;5054654;28;20040;-83
2022/01/23 09:09:23;;;;;;;11.30;5.60;;;5.70;99.90;;;;;;5055553;28;20055;-85
2022/01/23 09:14:25;;;;;;;10.77;5.77;;;5.70;99.90;;;;;;5053652;28;20151;-84
2022/01/23 09:16:52;;;;;;;9.80;5.30;;;5.70;99.90;;;;;;5037800;28;20072;-83
2022/01/23 09:19:20;;;;;;;13.45;6.10;;;5.80;99.90;;;;;;5036203;28;20127;-83
2022/01/23 09:21:49;;;;;;;10.82;5.68;;;5.80;99.90;;;;;;5070591;28;20071;-83
2022/01/23 09:24:19;;;;;;;7.65;4.90;;;5.90;99.90;;;;;;5023055;28;20048;-83
2022/01/23 09:26:52;;;;;;;8.57;5.03;;;5.80;99.90;;;;;;5040043;28;20155;-83
2022/01/23 09:29:28;;;;;;;9.23;5.15;;;5.90;99.90;;;;;;5039703;28;20172;-83
2022/01/23 09:31:54;;;;;;;12.75;5.40;;;5.90;99.90;;;;;;5025050;28;20494;-83
2022/01/23 09:34:22;;;;;;;7.72;5.07;;;5.90;99.90;;;;;;5020974;28;20056;-83
2022/01/23 09:36:48;;;;;;;8.40;5.10;;;5.90;99.90;;;;;;5055746;28;20052;-83
2022/01/23 09:39:15;;;;;;;8.27;5.03;;;5.90;99.90;;;;;;5038958;28;20107;-84
2022/01/23 09:41:47;;;;;;;10.13;5.43;;;6.00;99.90;;;;;;5038856;28;20083;-85
2022/01/23 09:44:18;;;;;;;11.50;5.25;;;5.90;99.90;;;;;;5088873;28;20041;-84
2022/01/23 09:46:46;;;;;;;11.70;5.35;;;6.00;99.90;;;;;;5025062;28;20044;-82
2022/01/23 09:49:15;;;;;;;9.73;5.38;;;6.50;99.90;;;;;;5022093;28;20052;-83
2022/01/23 09:51:43;;;;;;;8.98;4.97;;;6.00;99.90;;;;;;5070591;28;20052;-82
2022/01/23 09:54:17;;;;;;;10.45;5.13;;;6.10;99.90;;;;;;5022919;28;20463;-83
2022/01/23 09:56:43;;;;;;;8.48;5.50;;;6.10;99.90;;;;;;5036161;28;20057;-83
2022/01/23 09:59:14;;;;;;;8.52;5.07;;;4.80;99.90;;;;;;5037620;28;20534;-82
2022/01/23 10:01:45;;;;;;;7.00;4.82;;;6.10;99.90;;;;;;5042934;28;20076;-83
2022/01/23 10:04:11;;;;;;;9.30;5.07;;;6.10;99.90;;;;;;5067227;28;20407;-83
2022/01/23 10:06:37;;;;;;;8.23;5.35;;;6.20;99.90;;;;;;5036927;28;20119;-81
2022/01/23 10:09:07;;;;;;;7.00;4.65;;;7.70;99.90;;;;;;5037017;28;20135;-84
2022/01/23 10:11:39;;;;;;;8.82;5.22;;;6.20;99.90;;;;;;5021282;28;20090;-83
2022/01/23 10:14:05;;;;;;;7.28;4.70;;;6.20;99.90;;;;;;5023381;28;20041;-81
2022/01/23 10:16:32;;;;;;;7.07;4.68;;;6.20;99.90;;;;;;5041561;28;20055;-82
2022/01/23 10:18:59;;;;;;;9.82;5.43;;;6.20;99.90;;;;;;5037878;28;20094;-82
2022/01/23 10:21:25;;;;;;;10.02;6.20;;;6.30;99.90;;;;;;5053780;28;20060;-82
2022/01/23 10:23:53;;;;;;;9.93;6.53;;;6.30;99.90;;;;;;5022035;28;20498;-82
2022/01/23 10:26:39;;;;;;;10.95;5.72;;;6.30;99.90;;;;;;5068068;28;20040;-83
2022/01/23 10:29:43;;;;;;;8.63;5.45;;;6.30;99.90;;;;;;5038487;28;20045;-84
2022/01/23 10:32:25;;;;;;;8.18;5.40;;;6.40;99.90;;;;;;5018637;28;20044;-82
2022/01/23 10:34:59;;;;;;;10.35;5.63;;;6.30;99.90;;;;;;5036926;28;20300;-82
2022/01/23 10:37:28;;;;;;;12.60;6.38;;;5.60;99.90;;;;;;5040598;28;20129;-81
2022/01/23 10:39:56;;;;;;;11.02;5.57;;;6.40;99.90;;;;;;5060569;28;20040;-82
2022/01/23 10:48:35;;;;;;;11.03;6.03;;;6.40;99.90;;;;;;5052735;28;20409;-85
2022/01/23 10:51:23;;;;;;;8.45;6.03;;;6.50;99.90;;;;;;5067594;28;20048;-85
2022/01/23 10:53:58;;;;;;;8.57;6.30;;;6.50;99.90;;;;;;5084489;28;20561;-82
2022/01/23 10:56:27;;;;;;;12.43;7.00;;;6.50;99.90;;;;;;5051346;28;20406;-81
2022/01/23 10:59:13;;;;;;;13.40;7.65;;;6.50;99.90;;;;;;5072011;28;20084;-84
2022/01/23 11:01:57;;;;;;;13.15;7.07;;;6.30;99.90;;;;;;5046494;28;20063;-85
2022/01/23 11:04:26;;;;;;;12.82;7.22;;;6.60;99.90;;;;;;5024479;28;20053;-85
2022/01/23 11:06:59;;;;;;;12.05;7.38;;;6.50;99.90;;;;;;5051763;28;20056;-85
2022/01/23 11:09:43;;;;;;;12.68;7.03;;;6.50;99.90;;;;;;5022258;28;20167;-86
2022/01/23 11:12:22;;;;;;;9.95;6.45;;;6.60;99.90;;;;;;5034829;28;20044;-85
2022/01/23 11:17:50;;;;;;;12.07;6.57;;;6.50;99.90;;;;;;5053910;28;20044;-85
2022/01/23 11:20:28;;;;;;;10.07;6.07;;;6.60;99.90;;;;;;5020439;28;20041;-84
2022/01/23 11:23:14;;;;;;;10.65;6.68;;;6.60;99.90;;;;;;5051235;28;20394;-83
2022/01/23 11:26:05;;;;;;;10.70;5.97;;;6.60;99.90;;;;;;5054932;28;20128;-83
2022/01/23 11:28:41;;;;;;;9.25;6.53;;;6.60;99.90;;;;;;5040705;28;20514;-86
2022/01/23 11:31:22;;;;;;;10.98;6.70;;;6.60;99.90;;;;;;5037303;28;20045;-87
2022/01/23 11:33:49;;;;;;;12.07;6.35;;;6.60;99.90;;;;;;5035085;28;20139;-81
2022/01/23 11:36:20;;;;;;;9.38;5.25;;;6.70;99.90;;;;;;5054508;28;20036;-86
2022/01/23 11:38:49;;;;;;;12.68;6.03;;;6.60;99.90;;;;;;5048727;28;20051;-86
2022/01/23 11:55:29;;;;;;;8.38;5.28;;;6.70;99.90;;;;;;5088476;28;20056;-85
2022/01/23 11:57:56;;;;;;;9.00;5.15;;;6.50;99.90;;;;;;5035059;28;20057;-85
2022/01/23 12:00:33;;;;;;;9.70;5.25;;;6.70;99.90;;;;;;5035535;28;20049;-84
2022/01/23 12:03:17;;;;;;;7.93;5.47;;;6.80;99.90;;;;;;5036396;28;20048;-84
2022/01/23 12:06:05;;;;;;;7.90;4.65;;;6.80;99.90;;;;;;5051855;28;20458;-83
2022/01/23 12:08:37;;;;;;;8.98;5.93;;;6.80;99.90;;;;;;5070054;28;20383;-83
2022/01/23 12:16:27;;;;;;;10.35;5.82;;;6.70;99.90;;;;;;5053216;28;20056;-84
2022/01/23 12:19:20;;;;;;;8.52;5.28;;;6.70;99.90;;;;;;5071157;28;20501;-84
2022/01/23 12:21:49;;;;;;;11.32;5.88;;;6.70;99.90;;;;;;5071481;28;20069;-84
2022/01/23 12:24:17;;;;;;;8.70;5.70;;;6.70;99.90;;;;;;5035387;28;20052;-84
2022/01/23 12:26:44;;;;;;;8.45;5.25;;;6.70;99.90;;;;;;5038720;28;20048;-82
2022/01/23 12:29:23;;;;;;;6.97;5.07;;;6.70;99.90;;;;;;5036238;28;20041;-83
2022/01/23 12:32:09;;;;;;;9.57;5.50;;;6.80;99.90;;;;;;5038918;28;20436;-84
2022/01/23 12:34:56;;;;;;;9.43;5.40;;;6.70;99.90;;;;;;5053906;28;20391;-84
2022/01/23 12:37:22;;;;;;;9.60;5.38;;;6.70;99.90;;;;;;5074568;28;20045;-85
2022/01/23 12:40:27;;;;;;;8.82;5.15;;;6.80;99.90;;;;;;5064803;28;20044;-84
2022/01/23 12:43:13;;;;;;;9.00;5.03;;;6.70;99.90;;;;;;5058136;28;20776;-85
2022/01/23 12:45:46;;;;;;;7.10;4.80;;;6.70;99.90;;;;;;5039993;28;20045;-84
2022/01/23 12:48:30;;;;;;;9.35;5.80;;;6.80;99.90;;;;;;5054853;28;20049;-84
2022/01/23 12:51:05;;;;;;;9.27;5.63;;;5.80;99.90;;;;;;5025056;28;20083;-83
2022/01/23 12:53:57;;;;;;;9.45;5.28;;;6.70;99.90;;;;;;5026328;28;20056;-84
2022/01/23 12:56:42;;;;;;;8.07;5.03;;;6.80;99.90;;;;;;5052792;28;20140;-85
2022/01/23 12:59:12;;;;;;;8.93;5.10;;;6.80;99.90;;;;;;5041473;28;20040;-84
2022/01/23 13:01:46;;;;;;;8.02;5.65;;;6.70;99.90;;;;;;5055881;28;20592;-85
2022/01/23 13:04:12;;;;;;;7.63;4.80;;;6.80;99.90;;;;;;5069157;28;20051;-83
2022/01/23 13:06:53;;;;;;;7.22;5.18;;;6.70;99.90;;;;;;5038440;28;20045;-84
2022/01/23 13:12:13;;;;;;;8.27;4.95;;;6.60;99.90;;;;;;5054657;28;20120;-84
2022/01/23 13:17:42;;;;;;;7.72;5.15;;;6.70;99.90;;;;;;5057002;28;20044;-84
2022/01/23 13:32:08;;;;;;;;;;;5.40;99.90;;;;;;5087456;28;20052;-86
2022/01/23 13:35:02;;;;;;;7.45;4.75;;;6.70;99.90;;;;;;5056020;28;19931;-85
2022/01/23 13:37:55;;;;;;;8.32;4.80;;;6.70;99.90;;;;;;5024648;28;20095;-85
2022/01/23 13:40:33;;;;;;;8.45;4.85;;;6.80;99.90;;;;;;5037479;28;20132;-85
2022/01/23 14:03:36;;;;;;;8.13;5.35;;;5.70;99.90;;;;;;5050547;28;20040;-87
2022/01/23 14:06:15;;;;;;;8.20;5.32;;;6.60;99.90;;;;;;5054606;28;20048;-84
2022/01/23 14:08:59;;;;;;;7.10;5.20;;;6.60;99.90;;;;;;5070564;28;20040;-85
2022/01/23 14:11:28;;;;;;;7.75;4.78;;;6.60;99.90;;;;;;5039161;28;20784;-83
2022/01/23 14:13:54;;;;;;;7.40;5.20;;;7.00;99.90;;;;;;5053825;28;20045;-84
2022/01/23 14:16:27;;;;;;;7.72;5.18;;;6.60;99.90;;;;;;5039760;28;20052;-84
2022/01/23 14:18:53;;;;;;;7.88;5.57;;;6.60;99.90;;;;;;5039137;28;20045;-85
2022/01/23 14:21:22;;;;;;;7.78;5.70;;;6.60;99.90;;;;;;5087867;28;20048;-84
2022/01/23 14:23:55;;;;;;;9.32;5.88;;;6.60;99.90;;;;;;5069344;28;20094;-84
2022/01/23 14:26:22;;;;;;;10.95;7.57;;;6.60;99.90;;;;;;5036031;28;20454;-84
2022/01/23 14:28:51;;;;;;;11.80;6.70;;;6.50;99.90;;;;;;5041303;28;20045;-84
2022/01/23 14:31:23;;;;;;;9.20;6.50;;;6.50;99.90;;;;;;5053981;28;20049;-84
2022/01/23 14:33:57;;;;;;;8.50;5.57;;;6.20;99.90;;;;;;5035852;28;20430;-84
2022/01/23 14:36:26;;;;;;;9.02;5.47;;;6.50;99.90;;;;;;5038850;28;20049;-83
2022/01/23 14:38:56;;;;;;;7.53;5.32;;;6.50;99.90;;;;;;5053365;28;20056;-83
2022/01/23 14:41:24;;;;;;;8.05;5.00;;;6.40;99.90;;;;;;5037521;28;20132;-84
2022/01/23 14:43:51;;;;;;;8.48;5.63;;;6.40;99.90;;;;;;5039870;28;20624;-83
2022/01/23 14:46:17;;;;;;;11.15;6.15;;;6.40;99.90;;;;;;5072486;28;20456;-84
2022/01/23 14:48:48;;;;;;;9.60;6.40;;;6.30;99.90;;;;;;5037778;28;20052;-83
2022/01/23 14:51:19;;;;;;;9.90;5.70;;;6.40;99.90;;;;;;5036659;28;20394;-85
2022/01/23 14:53:46;;;;;;;11.07;5.95;;;6.40;99.90;;;;;;5034447;28;20565;-84
2022/01/23 14:56:13;;;;;;;9.57;5.78;;;6.80;99.90;;;;;;5036624;28;20076;-83
2022/01/23 14:58:42;;;;;;;10.75;6.10;;;6.20;99.90;;;;;;5052924;28;20063;-85
2022/01/23 15:01:12;;;;;;;7.72;5.97;;;6.30;99.90;;;;;;5082928;28;20489;-85
2022/01/23 15:03:53;;;;;;;9.88;6.00;;;6.30;99.90;;;;;;5052066;28;20049;-83
2022/01/23 15:06:22;;;;;;;9.68;6.22;;;6.30;99.90;;;;;;5070291;28;20045;-83
2022/01/23 15:08:49;;;;;;;11.60;6.85;;;6.30;99.90;;;;;;5052569;28;20036;-84
2022/01/23 15:11:15;;;;;;;11.45;6.28;;;6.90;99.90;;;;;;5034123;28;20052;-84
2022/01/23 15:13:41;;;;;;;10.55;7.05;;;6.30;99.90;;;;;;5051568;28;20060;-85
2022/01/23 15:16:07;;;;;;;8.73;6.75;;;6.30;99.90;;;;;;5035687;28;20157;-84
2022/01/23 15:18:35;;;;;;;9.05;6.38;;;6.30;99.90;;;;;;5035837;28;20120;-86
2022/01/23 15:21:01;;;;;;;10.45;7.00;;;6.10;99.90;;;;;;5036695;28;20044;-84
2022/01/23 15:23:27;;;;;;;9.00;6.90;;;6.30;99.90;;;;;;5022321;28;20048;-83
2022/01/23 15:25:53;;;;;;;12.05;7.03;;;6.20;99.90;;;;;;5038548;28;20036;-83
2022/01/23 15:28:20;;;;;;;9.18;6.60;;;6.30;99.90;;;;;;5019999;28;20078;-83
2022/01/23 15:30:45;;;;;;;8.98;6.18;;;6.30;99.90;;;;;;5054541;28;20123;-84
2022/01/23 15:33:12;;;;;;;9.93;6.10;;;6.30;99.90;;;;;;5036351;28;20127;-84
2022/01/23 15:35:47;;;;;;;12.90;6.20;;;6.30;99.90;;;;;;5050815;28;20048;-84
2022/01/23 15:38:17;;;;;;;8.23;6.07;;;6.30;99.90;;;;;;5038417;28;20048;-83
2022/01/23 15:40:43;;;;;;;10.05;6.10;;;6.30;99.90;;;;;;5036404;28;20067;-83
2022/01/23 15:43:09;;;;;;;10.95;6.57;;;6.30;99.90;;;;;;5067599;28;20049;-83
2022/01/23 15:45:35;;;;;;;9.60;6.70;;;6.30;99.90;;;;;;5020076;28;20155;-84
2022/01/23 15:48:00;;;;;;;9.77;6.25;;;6.30;99.90;;;;;;5033902;28;20049;-84
2022/01/23 15:50:26;;;;;;;11.15;6.43;;;6.90;99.90;;;;;;5051726;28;20095;-84
2022/01/23 15:52:52;;;;;;;8.63;6.15;;;6.30;99.90;;;;;;5021169;28;20051;-84
2022/01/23 15:55:19;;;;;;;9.90;6.88;;;6.30;99.90;;;;;;5036200;28;20493;-83
2022/01/23 15:57:48;;;;;;;8.32;5.72;;;6.30;99.90;;;;;;5068524;28;20670;-82
2022/01/23 16:00:17;;;;;;;10.93;6.43;;;6.40;99.90;;;;;;5036312;28;20402;-82
2022/01/23 16:02:43;;;;;;;9.82;6.07;;;6.20;99.90;;;;;;5022509;28;20123;-82
2022/01/23 16:05:12;;;;;;;10.63;6.43;;;7.00;99.90;;;;;;5038864;28;20087;-82
2022/01/23 16:07:38;;;;;;;10.27;6.50;;;6.30;99.90;;;;;;5039137;28;20067;-84
2022/01/23 16:10:05;;;;;;;9.05;6.28;;;6.20;99.90;;;;;;5039333;28;20048;-83
2022/01/23 16:12:31;;;;;;;11.32;6.20;;;6.20;99.90;;;;;;5056434;28;20258;-84
2022/01/23 16:14:57;;;;;;;9.65;6.43;;;6.20;99.90;;;;;;5056507;28;20032;-84
2022/01/23 16:17:23;;;;;;;9.40;5.80;;;6.30;99.90;;;;;;5037430;28;20090;-84
2022/01/23 16:19:50;;;;;;;8.90;6.18;;;6.20;99.90;;;;;;5039378;28;20052;-84
2022/01/23 16:22:16;;;;;;;10.13;6.25;;;6.20;99.90;;;;;;5070092;28;20098;-84
2022/01/23 16:24:41;;;;;;;10.88;6.63;;;6.20;99.90;;;;;;5039078;28;20053;-83
2022/01/23 16:27:07;;;;;;;10.45;6.05;;;6.20;99.90;;;;;;5023165;28;20501;-84
2022/01/23 16:29:33;;;;;;;10.88;6.53;;;6.30;99.90;;;;;;5039821;28;20041;-84
2022/01/23 16:31:59;;;;;;;10.07;5.85;;;6.20;99.90;;;;;;5056125;28;20044;-84
2022/01/23 16:34:29;;;;;;;10.93;6.70;;;6.10;99.90;;;;;;5058897;28;20110;-84